Fremont, MI (49413)

3:34 AM EDT on May 25, 2017 (GMT -0400)
MMIFRM | | Change Station

Elev 760 ft 43.42 °N, 85.96 °W | Updated 16 days ago

Overcast
Overcast
28.0 °F
Feels Like 28 °F
N
1.0
Wind Variable Wind from NW

Today
High -- | Low -- °F
--% Chance of Precip.
Yesterday
High -- | Low -- °F
Precip. -- in
Pressure 29.55 in
Visibility 10.0 miles
Clouds Scattered Clouds 1300 ft
Mostly Cloudy 4700 ft
Overcast 7500 ft
Windchill 28 °F
Dew Point 19 °F
Humidity 68%
Rainfall 0.01 in
Snow Depth Not available.
6:09 AM 9:12 PM
Waning Crescent, 0% visible
METAR KMKG 250655Z AUTO 03009KT 10SM SCT013 BKN047 OVC075 14/13 A2955 RMK AO2 RAB0558E55 CIG 031 RWY 14 SLP004 P0001 T01390128
Pressure 29.55 in
Visibility 10.0 miles
Clouds Scattered Clouds 1300 ft
Mostly Cloudy 4700 ft
Overcast 7500 ft
Windchill 28 °F
Dew Point 19 °F
Humidity 68%
Rainfall 0.01 in
Snow Depth Not available.
6:09 AM 9:12 PM
Waning Crescent, 0% visible
METAR KMKG 250655Z AUTO 03009KT 10SM SCT013 BKN047 OVC075 14/13 A2955 RMK AO2 RAB0558E55 CIG 031 RWY 14 SLP004 P0001 T01390128

Get Severe Weather Alerts

Thanks for signing up!

Be on the lookout for a verification email in your inbox.

You'll start receiving the daily forecast at 6 AM.

×

10-Day Weather Forecast

Almanac

Astronomy

May. 25, 2017 Rise Set
Actual Time
Civil Twilight
Nautical Twilight
Astronomical Twilight
Moon
Length of Visible Light
Length of Day
Tomorrow will be .
, % of the Moon is Illuminated

Today's Extremes

State Highs State Lows

Community

WunderPhotos

Category 6

Welcome to Category 6. This is the collective home for Weather Underground's featured writeups by Dr. Jeff Masters (right), Bob Henson (left), Chris Burt, and other regular contributors.

Nearby

Air Quality

  Air Quality AQ Index Pollutant
Not available.

Snow Depth

Station Depth Elevation

Earthquake Activity

City Distance Mag. Time & Date
Minimum magnitude displayed is 2.5.

Coastal Water Temperatures

Place Temperature

Stations

Nearby Weather Stations

Station Location Temp. Windchill Dew Point Humidity Wind Precip. Elev Updated Type
                   

Watches & Warnings

There are currently no watches in effect.